createdAt,value
2023-02-18T00:03:43.829Z,1.85
2023-02-18T00:08:48.718Z,2.70
2023-02-18T00:13:53.353Z,2.67
2023-02-18T00:18:59.892Z,1.63
2023-02-18T00:24:03.944Z,0.90
2023-02-18T00:29:07.874Z,2.30
2023-02-18T00:34:14.672Z,2.67
2023-02-18T00:44:22.693Z,2.83
2023-02-18T00:49:28.325Z,2.25
2023-02-18T00:54:32.712Z,2.33
2023-02-18T00:59:36.698Z,1.42
2023-02-18T01:04:42.096Z,1.63
2023-02-18T01:09:46.075Z,1.92
2023-02-18T01:14:50.955Z,3.28
2023-02-18T01:19:56.301Z,2.20
2023-02-18T01:25:00.297Z,2.05
2023-02-18T01:30:05.343Z,2.55
2023-02-18T01:35:14.814Z,2.58
2023-02-18T01:40:21.963Z,3.08
2023-02-18T01:50:54.481Z,1.38
2023-02-18T01:55:59.741Z,1.27
2023-02-18T02:01:03.991Z,1.35
2023-02-18T02:06:16.527Z,2.08
2023-02-18T02:11:28.373Z,1.05
2023-02-18T02:16:40.257Z,1.08
2023-02-18T02:22:19.086Z,1.67
2023-02-18T02:27:30.430Z,1.75
2023-02-18T02:33:03.151Z,0.90
2023-02-18T02:38:17.392Z,1.35
2023-02-18T02:43:31.675Z,0.75
2023-02-18T02:48:45.487Z,1.63
2023-02-18T02:53:50.886Z,1.83
2023-02-18T02:59:00.819Z,6.97
2023-02-18T03:04:37.182Z,3.95
2023-02-18T03:09:57.039Z,1.55
2023-02-18T03:15:06.674Z,0.43
2023-02-18T03:20:17.895Z,1.42
2023-02-18T03:25:24.802Z,1.38
2023-02-18T03:30:32.463Z,1.92
2023-02-18T03:35:37.467Z,3.63
2023-02-18T03:40:43.304Z,2.35
2023-02-18T03:45:47.348Z,3.75
2023-02-18T03:50:51.912Z,3.78
2023-02-18T03:55:57.307Z,3.08
2023-02-18T04:01:01.216Z,1.88
2023-02-18T04:06:05.764Z,1.70
2023-02-18T04:11:11.130Z,0.65
2023-02-18T04:16:15.841Z,1.25
2023-02-18T04:21:19.803Z,0.63
2023-02-18T04:26:25.141Z,1.08
2023-02-18T04:31:29.263Z,0.95
2023-02-18T04:36:33.255Z,2.92
2023-02-18T04:41:38.592Z,1.67
2023-02-18T04:46:42.540Z,2.13
2023-02-18T04:51:46.562Z,7.80
2023-02-18T04:56:51.939Z,3.70
2023-02-18T05:01:55.870Z,3.53
2023-02-18T05:06:59.837Z,1.77
2023-02-18T05:12:05.375Z,3.10
2023-02-18T05:17:09.361Z,3.17
2023-02-18T05:22:13.337Z,3.03
2023-02-18T05:27:18.585Z,1.95
2023-02-18T05:32:22.554Z,1.35
2023-02-18T05:37:26.596Z,0.68
2023-02-18T05:42:33.021Z,2.05
2023-02-18T05:47:36.983Z,1.37
2023-02-18T05:52:40.888Z,2.15
2023-02-18T05:57:46.260Z,1.52
2023-02-18T06:02:50.477Z,2.13
2023-02-18T06:07:56.622Z,2.20
2023-02-18T06:13:04.468Z,3.58
2023-02-18T06:18:08.615Z,4.18
2023-02-18T06:23:12.570Z,2.78
2023-02-18T06:28:17.993Z,2.85
2023-02-18T06:33:21.956Z,2.47
2023-02-18T06:38:26.215Z,2.72
2023-02-18T06:43:31.699Z,3.90
2023-02-18T06:48:35.608Z,3.55
2023-02-18T06:53:39.539Z,3.85
2023-02-18T06:58:44.925Z,5.72
2023-02-18T07:03:50.287Z,4.03
2023-02-18T07:08:54.446Z,3.05
2023-02-18T07:14:00.946Z,8.00
2023-02-18T07:19:04.876Z,6.57
2023-02-18T07:24:09.002Z,8.25
2023-02-18T07:29:14.252Z,7.32
2023-02-18T07:34:19.533Z,4.35
2023-02-18T07:39:23.486Z,3.30
2023-02-18T07:44:28.792Z,3.22
2023-02-18T07:49:33.447Z,4.03
2023-02-18T07:54:37.464Z,8.70
2023-02-18T07:59:43.094Z,5.03
2023-02-18T08:04:47.157Z,3.58
2023-02-18T08:09:53.445Z,3.28
2023-02-18T08:14:59.367Z,7.03
2023-02-18T08:20:03.533Z,6.60
2023-02-18T08:25:09.185Z,4.88
2023-02-18T08:30:17.571Z,5.82
2023-02-18T08:35:21.614Z,6.60
2023-02-18T08:40:25.496Z,12.10
2023-02-18T08:45:30.720Z,4.45
2023-02-18T08:50:34.866Z,3.83
2023-02-18T08:55:42.211Z,6.03
2023-02-18T09:00:47.877Z,6.35
2023-02-18T09:05:51.911Z,7.10
2023-02-18T09:10:59.625Z,6.40
2023-02-18T09:16:07.540Z,4.97
2023-02-18T09:21:14.845Z,5.78
2023-02-18T09:26:23.584Z,6.85
2023-02-18T09:31:30.008Z,5.05
2023-02-18T09:36:34.180Z,8.05
2023-02-18T09:41:43.298Z,10.70
2023-02-18T09:46:55.143Z,6.97
2023-02-18T09:52:08.307Z,7.97
2023-02-18T09:57:23.911Z,6.05
2023-02-18T10:02:30.166Z,6.63
2023-02-18T10:07:36.534Z,5.55
2023-02-18T10:12:41.754Z,4.00
2023-02-18T10:17:49.342Z,3.70
2023-02-18T10:22:55.365Z,4.25
2023-02-18T10:28:02.108Z,3.53
2023-02-18T10:33:22.769Z,3.87
2023-02-18T10:38:37.383Z,5.00
2023-02-18T10:43:50.669Z,5.45
2023-02-18T10:49:11.045Z,3.25
2023-02-18T10:54:16.217Z,4.60
2023-02-18T10:59:22.548Z,2.63
2023-02-18T11:04:35.819Z,2.80
2023-02-18T11:09:46.511Z,2.40
2023-02-18T11:15:03.986Z,2.88
2023-02-18T11:25:28.946Z,1.55
2023-02-18T11:30:38.206Z,1.20
2023-02-18T11:35:51.336Z,1.25
2023-02-18T11:40:57.821Z,1.45
2023-02-18T11:46:21.232Z,0.75
2023-02-18T11:51:28.643Z,0.75
2023-02-18T12:01:44.882Z,0.60
2023-02-18T12:06:56.527Z,1.23
2023-02-18T12:12:04.521Z,1.50
2023-02-18T12:17:36.207Z,0.80
2023-02-18T12:22:45.320Z,0.80
2023-02-18T12:27:57.915Z,1.45
2023-02-18T12:33:11.159Z,0.90
2023-02-18T12:38:35.199Z,0.73
2023-02-18T12:43:52.751Z,2.20
2023-02-18T12:49:16.853Z,1.00
2023-02-18T12:54:46.545Z,0.77
2023-02-18T13:00:24.044Z,1.33
2023-02-18T13:05:36.928Z,0.68
2023-02-18T13:10:55.374Z,1.83
2023-02-18T13:16:06.354Z,3.17
2023-02-18T13:21:13.565Z,1.92
2023-02-18T13:26:20.502Z,1.02
2023-02-18T13:31:37.062Z,3.78
2023-02-18T13:36:53.709Z,4.43
2023-02-18T13:42:27.325Z,4.17
2023-02-18T13:47:39.754Z,1.70
2023-02-18T13:52:44.668Z,0.50
2023-02-18T13:57:54.589Z,1.73
2023-02-18T14:03:00.428Z,1.30
2023-02-18T14:08:15.092Z,6.15
2023-02-18T14:13:40.877Z,2.25
2023-02-18T14:19:03.746Z,1.25
2023-02-18T14:24:10.721Z,2.47
2023-02-18T14:29:22.311Z,1.27
2023-02-18T14:35:05.131Z,0.75
2023-02-18T14:40:50.709Z,0.50
2023-02-18T14:46:11.172Z,0.55
2023-02-18T14:51:17.134Z,0.45
2023-02-18T14:56:23.328Z,0.55
2023-02-18T15:01:31.381Z,0.40
2023-02-18T15:06:38.359Z,1.08
2023-02-18T15:11:47.374Z,0.50
2023-02-18T15:16:54.141Z,0.90
2023-02-18T15:21:59.178Z,2.80
2023-02-18T15:27:05.283Z,5.90
2023-02-18T15:32:19.884Z,7.47
2023-02-18T15:37:24.018Z,4.50
2023-02-18T15:42:30.046Z,4.90
2023-02-18T15:47:35.629Z,3.08
2023-02-18T15:52:40.436Z,3.50
2023-02-18T15:57:44.724Z,2.22
2023-02-18T16:02:55.556Z,2.40
2023-02-18T16:08:04.400Z,8.93
2023-02-18T16:13:08.544Z,6.68
2023-02-18T16:18:30.530Z,2.38
2023-02-18T16:23:38.171Z,2.35
2023-02-18T16:28:44.068Z,1.42
2023-02-18T16:33:50.305Z,1.50
2023-02-18T16:38:54.318Z,3.75
2023-02-18T16:43:58.765Z,4.50
2023-02-18T16:49:04.121Z,4.15
2023-02-18T16:54:11.315Z,2.30
2023-02-18T16:59:15.296Z,5.63
2023-02-18T17:04:21.045Z,1.73
2023-02-18T17:09:27.538Z,3.88
2023-02-18T17:14:31.802Z,1.42
2023-02-18T17:19:37.158Z,0.75
2023-02-18T17:24:41.472Z,1.98
2023-02-18T17:29:45.426Z,1.42
2023-02-18T17:34:50.903Z,2.85
2023-02-18T17:39:55.177Z,3.33
2023-02-18T17:44:59.284Z,4.30
2023-02-18T17:50:04.776Z,3.65
2023-02-18T17:55:21.612Z,2.30
2023-02-18T18:00:27.967Z,2.25
2023-02-18T18:05:34.950Z,2.13
2023-02-18T18:10:41.725Z,3.40
2023-02-18T18:15:46.433Z,4.85
2023-02-18T18:20:53.331Z,2.17
2023-02-18T18:25:58.514Z,2.22
2023-02-18T18:31:03.271Z,1.75
2023-02-18T18:36:09.484Z,1.45
2023-02-18T18:41:16.416Z,1.23
2023-02-18T18:46:20.605Z,0.83
2023-02-18T18:51:29.820Z,0.90
2023-02-18T18:56:33.715Z,0.93
2023-02-18T19:01:38.005Z,0.73
2023-02-18T19:06:43.437Z,0.85
2023-02-18T19:11:47.500Z,1.02
2023-02-18T19:16:52.223Z,1.05
2023-02-18T19:21:57.573Z,4.85
2023-02-18T19:27:01.517Z,6.32
2023-02-18T19:32:06.020Z,2.22
2023-02-18T19:37:11.334Z,1.30
2023-02-18T19:42:15.275Z,1.05
2023-02-18T19:47:19.210Z,0.95
2023-02-18T19:52:24.545Z,4.10
2023-02-18T19:57:28.788Z,1.75
2023-02-18T20:02:32.964Z,4.57
2023-02-18T20:07:38.501Z,1.05
2023-02-18T20:12:42.812Z,1.98
2023-02-18T20:17:46.776Z,1.98
2023-02-18T20:22:52.180Z,1.65
2023-02-18T20:28:01.321Z,1.52
2023-02-18T20:33:05.879Z,0.63
2023-02-18T20:38:11.147Z,1.67
2023-02-18T20:43:15.100Z,1.33
2023-02-18T20:48:19.022Z,1.13
2023-02-18T20:53:24.430Z,1.00
2023-02-18T20:58:29.011Z,1.50
2023-02-18T21:03:33.678Z,0.98
2023-02-18T21:08:40.708Z,2.65
2023-02-18T21:13:46.650Z,1.33
2023-02-18T21:18:50.929Z,2.13
2023-02-18T21:23:56.311Z,1.20
2023-02-18T21:29:02.064Z,1.75
2023-02-18T21:34:07.692Z,3.72
2023-02-18T21:39:13.078Z,2.47
2023-02-18T21:44:16.987Z,1.58
2023-02-18T21:49:20.863Z,2.22
2023-02-18T21:54:28.408Z,1.00
2023-02-18T21:59:34.067Z,1.65
2023-02-18T22:04:38.669Z,2.25
2023-02-18T22:09:45.230Z,1.70
2023-02-18T22:19:54.571Z,1.15
2023-02-18T22:24:59.989Z,1.98
2023-02-18T22:30:04.057Z,2.17
2023-02-18T22:35:08.946Z,1.05
2023-02-18T22:40:14.449Z,2.95
2023-02-18T22:45:18.686Z,2.33
2023-02-18T22:50:22.735Z,1.25
2023-02-18T22:55:28.160Z,1.20
2023-02-18T23:00:32.219Z,1.67
2023-02-18T23:05:36.309Z,1.88
2023-02-18T23:10:41.600Z,1.20
2023-02-18T23:15:45.626Z,1.80
2023-02-18T23:21:07.415Z,1.35
2023-02-18T23:26:13.064Z,2.55
2023-02-18T23:31:18.431Z,1.10
2023-02-18T23:36:24.802Z,1.33
2023-02-18T23:41:30.938Z,1.65
2023-02-18T23:46:35.667Z,1.40
2023-02-18T23:51:39.820Z,2.08
2023-02-18T23:56:45.441Z,2.88
